This is the latest recevied weather packets stored in our database for station/object KC8JWT. If no packets are shown the sender has not sent any weather packets the latest 10 day(s).
| Time | Temp. | Humidity | Pressure | Rain* | Wind** | Luminosity | Snow |
|---|---|---|---|---|---|---|---|
| 1778181209 | 18.33° C | 33% | 1012.4 hPa | 0 mm | - | 799 W/m² | - |
| 1778180906 | 18.89° C | 30% | 1012.3 hPa | 0 mm | - | 827 W/m² | - |
| 1778180604 | 17.78° C | 34% | 1012.3 hPa | 0 mm | - | 858 W/m² | - |
| 1778180303 | 17.22° C | 30% | 1012.3 hPa | 0 mm | - | 879 W/m² | - |
| 1778179999 | 17.22° C | 31% | 1012.5 hPa | 0 mm | - | 257 W/m² | - |
| 1778179696 | 17.22° C | 33% | 1012.2 hPa | 0 mm | - | 921 W/m² | - |
| 1778179394 | 18.33° C | 31% | 1012.4 hPa | 0 mm | - | 191 W/m² | - |
| 1778179090 | 18.89° C | 30% | 1012.3 hPa | 0 mm | - | 943 W/m² | - |
| 1778178788 | 18.89° C | 32% | 1012.2 hPa | 0 mm | - | 675 W/m² | - |
| 1778178485 | 18.89° C | 30% | 1012.3 hPa | 0 mm | - | 940 W/m² | - |
| 1778178181 | 18.33° C | 30% | 1012.1 hPa | 0 mm | - | 948 W/m² | - |
| 1778177877 | 17.78° C | 31% | 1012 hPa | 0 mm | - | 961 W/m² | - |
| 1778177573 | 17.78° C | 33% | 1012.3 hPa | 0 mm | - | 912 W/m² | - |
| 1778177270 | 17.78° C | 32% | 1011.9 hPa | 0 mm | - | 902 W/m² | - |
| 1778176967 | 18.33° C | 31% | 1012.5 hPa | 0 mm | - | 230 W/m² | - |
| 1778176662 | 17.22° C | 33% | 1012.1 hPa | 0 mm | - | 953 W/m² | - |
| 1778176360 | 17.22° C | 31% | 1012.3 hPa | 0 mm | - | 790 W/m² | - |
| 1778176057 | 16.67° C | 35% | 1012.6 hPa | 0 mm | - | 287 W/m² | - |
| 1778175755 | 17.78° C | 30% | 1012.6 hPa | 0 mm | - | 869 W/m² | - |
| 1778175452 | 17.78° C | 32% | 1012.4 hPa | 0 mm | - | 979 W/m² | - |
| 1778175149 | 17.78° C | 33% | 1012.5 hPa | 0 mm | - | 951 W/m² | - |
| 1778174846 | 17.78° C | 33% | 1012.5 hPa | 0 mm | - | 944 W/m² | - |
| 1778174543 | 17.22° C | 34% | 1012.9 hPa | 0 mm | - | 980 W/m² | - |
| 1778174242 | 17.78° C | 33% | 1012.7 hPa | 0 mm | - | 943 W/m² | - |
| 1778173940 | 17.22° C | 35% | 1012.7 hPa | 0 mm | - | 918 W/m² | - |
* Rain latest hour (hover to see other rain measurements)
** Current wind speed in m/s (hover to see current wind gust speed)